Time;durP1;ratioP1;P1;durP2;ratioP2;P2;SDS_P1;SDS_P2;PMS_P1;PMS_P2;Temp;Humidity;BMP_temperature;BMP_pressure;BME280_temperature;BME280_humidity;BME280_pressure;Samples;Min_cycle;Max_cycle;Signal;HPM_P1;HPM_P2
2022/03/06 00:02:02;;;;;;;0.15;0.15;;;;;;;6.76;68.12;101426.28;4994380;28;20069;-71
2022/03/06 00:04:27;;;;;;;0.00;0.00;;;;;;;6.76;66.49;101427.13;5020965;28;20040;-71
2022/03/06 00:06:53;;;;;;;0.00;0.00;;;;;;;6.73;66.79;101416.69;5026827;28;20024;-73
2022/03/06 00:09:18;;;;;;;0.00;0.00;;;;;;;6.85;66.44;101413.28;5007050;28;20615;-71
2022/03/06 00:11:44;;;;;;;0.10;0.10;;;;;;;6.83;66.98;101429.81;5047608;28;20029;-70
2022/03/06 00:14:10;;;;;;;0.00;0.00;;;;;;;6.84;66.37;101422.50;5008908;28;20022;-73
2022/03/06 00:16:35;;;;;;;0.00;0.00;;;;;;;6.91;66.88;101417.88;4982988;28;20441;-70
2022/03/06 00:19:01;;;;;;;0.00;0.00;;;;;;;6.93;66.04;101415.75;4971953;28;20058;-69
2022/03/06 00:21:26;;;;;;;0.00;0.00;;;;;;;6.94;66.32;101412.00;5020620;28;20061;-71
2022/03/06 00:23:52;;;;;;;0.00;0.00;;;;;;;6.94;65.52;101418.25;5005518;28;20132;-70
2022/03/06 00:26:17;;;;;;;0.00;0.00;;;;;;;6.94;66.05;101412.00;5016730;28;20451;-70
2022/03/06 00:28:43;;;;;;;0.00;0.00;;;;;;;6.94;65.65;101412.81;4987670;28;20071;-70
2022/03/06 00:31:08;;;;;;;0.00;0.00;;;;;;;6.94;65.94;101420.97;5003670;28;20030;-71
2022/03/06 00:33:34;;;;;;;0.00;0.00;;;;;;;6.96;65.62;101415.31;5001202;28;20382;-71
2022/03/06 00:36:00;;;;;;;0.00;0.00;;;;;;;6.94;65.53;101417.44;5024976;28;20080;-71
2022/03/06 00:38:25;;;;;;;0.08;0.08;;;;;;;6.93;65.79;101399.44;4984597;28;20021;-70
2022/03/06 00:40:51;;;;;;;0.00;0.00;;;;;;;6.89;65.66;101412.66;5001394;28;20030;-70
2022/03/06 00:43:17;;;;;;;0.00;0.00;;;;;;;6.90;65.94;101400.69;4998350;28;20439;-71
2022/03/06 00:45:43;;;;;;;0.00;0.00;;;;;;;6.90;65.48;101394.44;4991016;28;20042;-70
2022/03/06 00:48:08;;;;;;;0.00;0.00;;;;;;;6.90;65.46;101399.88;5007632;28;20033;-70
2022/03/06 00:50:38;;;;;;;0.00;0.00;;;;;;;6.90;64.60;101408.03;4990710;28;20037;-71
2022/03/06 00:53:05;;;;;;;0.00;0.00;;;;;;;6.85;65.04;101397.81;5007429;28;20359;-71
2022/03/06 00:55:31;;;;;;;0.00;0.00;;;;;;;6.76;64.31;101399.94;4990157;28;20113;-70
2022/03/06 00:57:57;;;;;;;0.00;0.00;;;;;;;6.70;64.97;101403.53;4995209;28;20034;-71
2022/03/06 01:00:23;;;;;;;0.00;0.00;;;;;;;6.65;64.90;101419.66;5006093;28;20376;-71
2022/03/06 01:02:48;;;;;;;0.00;0.00;;;;;;;6.60;65.17;101409.44;4993852;28;20153;-71
2022/03/06 01:05:14;;;;;;;0.00;0.00;;;;;;;6.60;65.14;101422.16;4995469;28;20479;-71
2022/03/06 01:07:40;;;;;;;0.00;0.00;;;;;;;6.60;65.40;101428.44;5003474;28;20044;-71
2022/03/06 01:10:07;;;;;;;0.00;0.00;;;;;;;6.60;65.43;101422.16;5010799;28;20022;-72
2022/03/06 01:12:32;;;;;;;0.00;0.00;;;;;;;6.59;65.29;101421.34;5007297;28;20163;-71
2022/03/06 01:15:01;;;;;;;0.00;0.00;;;;;;;6.62;65.05;101425.50;5067580;28;20098;-70
2022/03/06 01:17:26;;;;;;;0.00;0.00;;;;;;;6.63;65.10;101414.44;5086644;28;20469;-72
2022/03/06 01:19:52;;;;;;;0.00;0.00;;;;;;;6.67;65.50;101422.97;5000872;28;20045;-71
2022/03/06 01:22:17;;;;;;;0.00;0.00;;;;;;;6.70;64.64;101422.56;5006963;28;20029;-70
2022/03/06 01:24:43;;;;;;;0.00;0.00;;;;;;;6.73;64.82;101427.56;5010076;28;20028;-69
2022/03/06 01:27:08;;;;;;;0.00;0.00;;;;;;;6.74;65.42;101429.22;5003537;28;20062;-71
2022/03/06 01:29:34;;;;;;;0.00;0.00;;;;;;;6.77;64.75;101428.78;4979484;28;20037;-71
2022/03/06 01:31:59;;;;;;;0.00;0.00;;;;;;;6.78;65.31;101425.03;4990322;28;20037;-71
2022/03/06 01:34:24;;;;;;;0.00;0.00;;;;;;;6.83;64.60;101421.66;5003614;28;20026;-72
2022/03/06 01:36:50;;;;;;;0.00;0.00;;;;;;;6.84;65.15;101422.50;5012168;28;20113;-70
2022/03/06 01:39:16;;;;;;;0.00;0.00;;;;;;;6.81;65.33;101430.03;5006397;28;20034;-70
2022/03/06 01:41:41;;;;;;;0.00;0.00;;;;;;;6.79;64.80;101420.41;5024103;28;20030;-71
2022/03/06 01:44:13;;;;;;;0.00;0.00;;;;;;;6.77;65.09;101422.53;4990431;28;20033;-71
2022/03/06 01:46:39;;;;;;;0.00;0.00;;;;;;;6.72;65.32;101420.47;5021745;28;20056;-71
2022/03/06 01:49:05;;;;;;;0.00;0.00;;;;;;;6.70;65.46;101414.41;4983039;28;20475;-71
2022/03/06 01:51:32;;;;;;;0.00;0.00;;;;;;;6.71;65.12;101418.78;4989642;28;20117;-72
2022/03/06 01:53:57;;;;;;;0.00;0.00;;;;;;;6.74;65.19;101418.34;4982295;28;20160;-71
2022/03/06 01:56:23;;;;;;;0.00;0.00;;;;;;;6.74;65.13;101412.91;5015194;28;20109;-70
2022/03/06 01:58:49;;;;;;;0.00;0.00;;;;;;;6.75;65.48;101414.59;5007599;28;20217;-70
2022/03/06 02:01:15;;;;;;;0.00;0.00;;;;;;;6.80;64.38;101412.06;4992024;28;20038;-70
2022/03/06 02:03:40;;;;;;;0.00;0.00;;;;;;;6.76;64.68;101405.38;4976696;28;20534;-70
2022/03/06 02:06:08;;;;;;;0.00;0.00;;;;;;;6.73;64.76;101407.69;5007124;28;20036;-70
2022/03/06 02:08:33;;;;;;;0.00;0.00;;;;;;;6.70;63.93;101416.28;4990540;28;20038;-71
2022/03/06 02:10:59;;;;;;;0.00;0.00;;;;;;;6.67;63.84;101414.00;5026432;28;20353;-70
2022/03/06 02:13:25;;;;;;;0.00;0.00;;;;;;;6.66;63.59;101424.03;5013174;28;20491;-71
2022/03/06 02:15:52;;;;;;;0.00;0.00;;;;;;;6.69;64.30;101423.59;5006290;28;20459;-72
2022/03/06 02:18:19;;;;;;;0.00;0.00;;;;;;;6.69;63.74;101426.31;5010831;28;20510;-71
2022/03/06 02:20:54;;;;;;;0.00;0.00;;;;;;;6.63;62.97;101428.03;4988413;28;20045;-72
2022/03/06 02:23:19;;;;;;;0.00;0.00;;;;;;;6.66;63.09;101426.75;4986440;28;20036;-71
2022/03/06 02:25:45;;;;;;;0.00;0.00;;;;;;;6.67;63.34;101428.41;4989058;28;20121;-71
2022/03/06 02:28:11;;;;;;;0.00;0.00;;;;;;;6.67;63.34;101416.72;5005934;28;20113;-71
2022/03/06 02:30:39;;;;;;;0.00;0.00;;;;;;;6.70;63.13;101417.13;5000311;28;20030;-71
2022/03/06 02:33:07;;;;;;;0.00;0.00;;;;;;;6.72;63.60;101425.88;5008441;28;20018;-74
2022/03/06 02:35:36;;;;;;;0.00;0.00;;;;;;;6.71;63.35;101421.50;5012445;28;20038;-76
2022/03/06 02:38:03;;;;;;;0.00;0.00;;;;;;;6.69;63.66;101422.75;5017229;28;20108;-72
2022/03/06 02:40:38;;;;;;;0.00;0.00;;;;;;;6.64;63.27;101417.97;5003837;28;20030;-73
2022/03/06 02:43:05;;;;;;;0.00;0.00;;;;;;;6.67;63.82;101425.69;5017806;28;20025;-73
2022/03/06 02:45:31;;;;;;;0.00;0.00;;;;;;;6.62;63.57;101428.22;5011664;28;20041;-73
2022/03/06 02:47:57;;;;;;;0.00;0.00;;;;;;;6.61;63.76;101435.56;5010790;28;20121;-73
2022/03/06 02:50:34;;;;;;;0.00;0.00;;;;;;;6.59;63.17;101431.38;5008682;28;20057;-70
2022/03/06 02:53:03;;;;;;;0.00;0.00;;;;;;;6.53;62.76;101429.53;5024892;28;20100;-70
2022/03/06 02:55:28;;;;;;;0.00;0.00;;;;;;;6.45;63.24;101434.16;5043487;28;20028;-70
2022/03/06 02:57:54;;;;;;;0.00;0.00;;;;;;;6.34;63.06;101437.53;5002162;28;20124;-69
2022/03/06 03:00:22;;;;;;;0.70;0.70;;;;;;;6.22;63.27;101437.34;4995652;28;20044;-70
2022/03/06 03:02:49;;;;;;;0.00;0.00;;;;;;;6.12;63.06;101436.94;5027643;28;20062;-69
2022/03/06 03:05:15;;;;;;;0.00;0.00;;;;;;;6.06;62.57;101444.06;4995171;28;20129;-71
2022/03/06 03:07:42;;;;;;;0.00;0.00;;;;;;;6.01;63.73;101451.16;5021545;28;20056;-70
2022/03/06 03:10:10;;;;;;;0.00;0.00;;;;;;;5.94;63.38;101446.53;5005098;28;20026;-70
2022/03/06 03:12:36;;;;;;;0.00;0.00;;;;;;;5.92;63.61;101442.38;4992327;28;20364;-70
2022/03/06 03:15:04;;;;;;;0.00;0.00;;;;;;;5.87;62.93;101444.84;5006583;28;20033;-69
2022/03/06 03:17:29;;;;;;;0.00;0.00;;;;;;;5.86;63.64;101445.94;5006761;28;20044;-70
2022/03/06 03:19:55;;;;;;;0.00;0.00;;;;;;;5.83;63.20;101440.91;5009033;28;20030;-69
2022/03/06 03:22:20;;;;;;;0.00;0.00;;;;;;;5.85;63.80;101445.06;5003383;28;20025;-69
2022/03/06 03:24:46;;;;;;;0.00;0.00;;;;;;;5.90;63.33;101445.28;5008147;28;20025;-70
2022/03/06 03:27:11;;;;;;;0.00;0.00;;;;;;;5.92;63.59;101442.38;5002833;28;20022;-70
2022/03/06 03:29:37;;;;;;;0.00;0.00;;;;;;;5.94;63.58;101445.69;5006432;28;20042;-70
2022/03/06 03:32:03;;;;;;;0.00;0.00;;;;;;;5.93;62.86;101444.88;5014823;28;20044;-70
2022/03/06 03:34:28;;;;;;;0.00;0.00;;;;;;;5.92;63.65;101442.38;5004916;28;20383;-69
2022/03/06 03:36:54;;;;;;;0.00;0.00;;;;;;;5.87;63.44;101444.84;5017640;28;20084;-70
2022/03/06 03:39:19;;;;;;;0.00;0.00;;;;;;;5.79;63.00;101442.38;5005647;28;20447;-70
2022/03/06 03:41:45;;;;;;;0.00;0.00;;;;;;;5.68;63.31;101451.97;5006453;28;20032;-70
2022/03/06 03:44:10;;;;;;;0.00;0.00;;;;;;;5.54;62.99;101438.41;4982513;28;20495;-71
2022/03/06 03:46:36;;;;;;;0.00;0.00;;;;;;;5.44;63.10;101435.25;4991702;28;20051;-72
2022/03/06 03:49:01;;;;;;;0.00;0.00;;;;;;;5.38;63.65;101447.75;4996817;28;20029;-72
2022/03/06 03:51:27;;;;;;;0.00;0.00;;;;;;;5.30;63.77;101441.69;4999126;28;20036;-72
2022/03/06 03:53:52;;;;;;;0.00;0.00;;;;;;;5.20;63.96;101455.69;5064606;28;20081;-72
2022/03/06 03:56:18;;;;;;;0.00;0.00;;;;;;;5.06;63.37;101444.78;5021472;28;20042;-72
2022/03/06 03:58:43;;;;;;;0.00;0.00;;;;;;;4.96;63.80;101452.47;4984957;28;20030;-73
2022/03/06 04:01:09;;;;;;;0.00;0.00;;;;;;;4.90;64.44;101456.81;5004492;28;20037;-72
2022/03/06 04:03:34;;;;;;;0.00;0.00;;;;;;;4.87;64.54;101468.06;5005154;28;20491;-72
2022/03/06 04:06:00;;;;;;;0.00;0.00;;;;;;;4.85;63.83;101472.88;4989093;28;20034;-72
2022/03/06 04:08:25;;;;;;;0.00;0.00;;;;;;;4.81;64.71;101468.06;5012314;28;20033;-73
2022/03/06 04:10:51;;;;;;;0.00;0.00;;;;;;;4.75;64.73;101463.44;5032655;28;20124;-71
2022/03/06 04:13:17;;;;;;;0.00;0.00;;;;;;;4.67;64.34;101459.88;4973602;28;20029;-73
2022/03/06 04:15:45;;;;;;;0.00;0.00;;;;;;;4.65;64.62;101463.81;4986459;28;20026;-71
2022/03/06 04:18:10;;;;;;;0.00;0.00;;;;;;;4.59;65.21;101460.03;5018538;28;20032;-73
2022/03/06 04:20:39;;;;;;;0.00;0.00;;;;;;;4.55;65.31;101453.34;4988762;28;20026;-72
2022/03/06 04:23:05;;;;;;;0.00;0.00;;;;;;;4.52;65.88;101449.16;5005767;28;20743;-73
2022/03/06 04:25:30;;;;;;;0.00;0.00;;;;;;;4.53;65.62;101452.72;5009410;28;20026;-73
2022/03/06 04:27:56;;;;;;;0.00;0.00;;;;;;;4.55;65.24;101456.03;4968223;28;20125;-71
2022/03/06 04:30:22;;;;;;;0.00;0.00;;;;;;;4.56;66.26;101460.44;4988081;28;20022;-71
2022/03/06 04:32:47;;;;;;;0.00;0.00;;;;;;;4.60;65.63;101453.59;4992151;28;20107;-72
2022/03/06 04:35:13;;;;;;;0.00;0.00;;;;;;;4.61;65.82;101452.53;4968692;28;20038;-71
2022/03/06 04:37:38;;;;;;;0.00;0.00;;;;;;;4.65;66.49;101455.69;5053355;28;20040;-70
2022/03/06 04:40:04;;;;;;;0.00;0.00;;;;;;;4.70;66.10;101462.19;4987333;28;20026;-72
2022/03/06 04:42:30;;;;;;;0.00;0.00;;;;;;;4.75;65.77;101464.28;5019057;28;20041;-71
2022/03/06 04:44:55;;;;;;;0.00;0.00;;;;;;;4.79;65.44;101465.56;5006232;28;20022;-72
2022/03/06 04:47:20;;;;;;;0.00;0.00;;;;;;;4.83;65.68;101471.38;4983922;28;20388;-72
2022/03/06 04:49:48;;;;;;;0.00;0.00;;;;;;;4.87;65.79;101470.78;5021411;28;20026;-70
2022/03/06 04:52:14;;;;;;;0.00;0.00;;;;;;;4.94;65.72;101467.28;5009775;28;20336;-73
2022/03/06 04:54:39;;;;;;;0.00;0.00;;;;;;;4.97;66.02;101458.72;5001722;28;20103;-72
2022/03/06 04:57:05;;;;;;;0.00;0.00;;;;;;;5.03;65.96;101466.03;5032678;28;20025;-72
2022/03/06 04:59:30;;;;;;;0.00;0.00;;;;;;;5.06;65.71;101466.47;5014215;28;20057;-72
2022/03/06 05:01:56;;;;;;;0.00;0.00;;;;;;;5.11;65.19;101478.56;5032598;28;20486;-73
2022/03/06 05:04:22;;;;;;;0.00;0.00;;;;;;;5.12;65.68;101474.84;5026997;28;20029;-72
2022/03/06 05:06:47;;;;;;;0.00;0.00;;;;;;;5.12;64.98;101472.13;5025553;28;20041;-72
2022/03/06 05:09:13;;;;;;;0.00;0.00;;;;;;;5.14;65.60;101478.16;5004581;28;20040;-72
2022/03/06 05:11:38;;;;;;;0.00;0.00;;;;;;;5.17;64.76;101483.19;5035521;27;20724;-71
2022/03/06 05:14:04;;;;;;;0.00;0.00;;;;;;;5.17;65.45;101488.59;5010134;28;20040;-72
2022/03/06 05:16:30;;;;;;;0.00;0.00;;;;;;;5.14;64.84;101486.31;5053333;27;20031;-75
2022/03/06 05:18:57;;;;;;;0.00;0.00;;;;;;;5.14;64.40;101491.72;5030110;28;20044;-72
2022/03/06 05:21:23;;;;;;;0.00;0.00;;;;;;;5.09;64.69;101480.66;5026290;28;20029;-71
2022/03/06 05:23:48;;;;;;;0.00;0.00;;;;;;;5.07;64.61;101486.28;5023823;28;20485;-72
2022/03/06 05:26:14;;;;;;;0.22;0.22;;;;;;;5.01;64.61;101490.66;5015959;27;20049;-72
2022/03/06 05:28:41;;;;;;;0.00;0.00;;;;;;;4.95;65.03;101491.47;5035911;28;20466;-71
2022/03/06 05:31:07;;;;;;;0.00;0.00;;;;;;;4.90;64.92;101493.94;4995073;28;20113;-71
2022/03/06 05:33:33;;;;;;;0.00;0.00;;;;;;;4.84;64.96;101501.00;5016788;28;20029;-73
2022/03/06 05:35:58;;;;;;;0.00;0.00;;;;;;;4.81;64.94;101500.56;5006221;28;20041;-72
2022/03/06 05:38:24;;;;;;;0.00;0.00;;;;;;;4.78;64.73;101499.09;5034973;28;20052;-74
2022/03/06 05:40:49;;;;;;;0.00;0.00;;;;;;;4.77;65.02;101505.53;4996286;28;20121;-73
2022/03/06 05:43:15;;;;;;;0.00;0.00;;;;;;;4.79;65.27;101503.50;5026117;28;20038;-72
2022/03/06 05:45:40;;;;;;;0.00;0.00;;;;;;;4.85;64.79;101508.09;5023197;28;20029;-72
2022/03/06 05:48:06;;;;;;;0.00;0.00;;;;;;;4.88;64.90;101512.28;5032787;28;20086;-72
2022/03/06 05:50:31;;;;;;;0.00;0.00;;;;;;;4.93;64.82;101503.53;5024425;28;20465;-71
2022/03/06 05:52:57;;;;;;;0.00;0.00;;;;;;;4.98;64.84;101507.31;5022907;28;20025;-71
2022/03/06 05:55:23;;;;;;;0.00;0.00;;;;;;;5.00;64.82;101513.38;5021579;28;20036;-71
2022/03/06 05:57:48;;;;;;;0.00;0.00;;;;;;;5.00;64.17;101516.09;5048047;28;20120;-73
2022/03/06 06:00:16;;;;;;;0.00;0.00;;;;;;;4.97;64.96;101508.34;5010162;28;20086;-72
2022/03/06 06:02:44;;;;;;;0.00;0.00;;;;;;;4.96;64.93;101520.22;5015502;28;20021;-72
2022/03/06 06:05:10;;;;;;;0.00;0.00;;;;;;;4.96;64.35;101527.53;5024792;28;20033;-74
2022/03/06 06:07:36;;;;;;;0.00;0.00;;;;;;;4.92;64.84;101521.69;5045930;27;20121;-73
2022/03/06 06:10:04;;;;;;;0.00;0.00;;;;;;;4.89;64.55;101524.78;5032053;28;20113;-72
2022/03/06 06:12:29;;;;;;;0.00;0.00;;;;;;;4.91;64.31;101522.72;5037727;28;20021;-72
2022/03/06 06:14:55;;;;;;;0.00;0.00;;;;;;;4.92;64.42;101532.53;5026823;28;20021;-71
2022/03/06 06:17:20;;;;;;;0.00;0.00;;;;;;;4.96;64.25;101536.50;5039335;28;21428;-71
2022/03/06 06:19:46;;;;;;;0.00;0.00;;;;;;;4.98;64.95;101534.44;5032057;28;20052;-72
2022/03/06 06:22:12;;;;;;;6.30;1.00;;;;;;;4.99;64.70;101536.09;5040450;28;20046;-71
2022/03/06 06:24:38;;;;;;;0.00;0.00;;;;;;;5.03;64.67;101541.97;5033976;28;20116;-72
2022/03/06 06:27:03;;;;;;;0.00;0.00;;;;;;;5.03;64.93;101547.38;4995726;28;20496;-72
2022/03/06 06:29:32;;;;;;;0.00;0.00;;;;;;;4.99;65.10;101538.78;5032172;28;20041;-72
2022/03/06 06:31:58;;;;;;;0.00;0.00;;;;;;;5.00;64.21;101548.63;5016583;28;20021;-71
2022/03/06 06:34:26;;;;;;;0.00;0.00;;;;;;;4.98;64.70;101550.69;5000451;28;20022;-74
2022/03/06 06:36:57;;;;;;;0.00;0.00;;;;;;;4.95;64.42;101539.41;5050691;27;20102;-73
2022/03/06 06:39:25;;;;;;;0.00;0.00;;;;;;;5.03;64.40;101559.06;5013018;28;20356;-73
2022/03/06 06:41:53;;;;;;;0.00;0.00;;;;;;;4.99;64.21;101563.19;5016073;28;20359;-73
2022/03/06 06:44:19;;;;;;;0.00;0.00;;;;;;;4.99;64.03;101563.19;5016676;28;20455;-73
2022/03/06 06:46:47;;;;;;;0.00;0.00;;;;;;;4.93;64.06;101553.16;5010165;28;20050;-72
2022/03/06 06:49:12;;;;;;;0.00;0.00;;;;;;;4.99;64.31;101557.78;5014011;28;20029;-73
2022/03/06 06:51:41;;;;;;;0.00;0.00;;;;;;;5.02;64.44;101562.81;4997766;28;20112;-74
2022/03/06 06:54:06;;;;;;;0.00;0.00;;;;;;;5.03;63.87;101569.06;5001662;28;20022;-73
2022/03/06 06:56:32;;;;;;;0.00;0.00;;;;;;;4.98;64.74;101566.97;5012278;28;20047;-72
2022/03/06 06:58:57;;;;;;;0.00;0.00;;;;;;;5.00;64.85;101569.47;5028679;28;20026;-73
2022/03/06 07:01:23;;;;;;;0.00;0.00;;;;;;;4.98;64.10;101577.81;4991047;28;20026;-71
2022/03/06 07:03:49;;;;;;;0.00;0.00;;;;;;;4.93;64.28;101580.28;5044558;28;20037;-72
2022/03/06 07:06:14;;;;;;;0.00;0.00;;;;;;;4.88;64.64;101580.88;5017439;28;20026;-73
2022/03/06 07:08:40;;;;;;;0.00;0.00;;;;;;;4.87;64.17;101581.06;5028187;28;20030;-72
2022/03/06 07:11:06;;;;;;;0.00;0.00;;;;;;;4.84;64.38;101576.06;5023531;28;20038;-72
2022/03/06 07:13:31;;;;;;;0.00;0.00;;;;;;;4.86;64.78;101579.41;5007161;28;20468;-74
2022/03/06 07:15:58;;;;;;;0.00;0.00;;;;;;;4.86;64.71;101588.38;4995200;28;20050;-71
2022/03/06 07:18:23;;;;;;;0.00;0.00;;;;;;;4.85;64.39;101594.84;5007089;28;20129;-72
2022/03/06 07:20:49;;;;;;;0.00;0.00;;;;;;;4.87;64.61;101600.06;5012261;28;20026;-72
2022/03/06 07:23:15;;;;;;;0.00;0.00;;;;;;;4.89;64.40;101611.53;5009955;28;20029;-71
2022/03/06 07:25:41;;;;;;;0.00;0.00;;;;;;;4.91;64.84;101598.63;5004435;28;20034;-75
2022/03/06 07:28:07;;;;;;;0.00;0.00;;;;;;;4.93;64.94;101607.38;4972993;28;20030;-76
2022/03/06 07:30:33;;;;;;;0.00;0.00;;;;;;;4.98;64.72;101609.47;5007053;28;20486;-77
2022/03/06 07:33:00;;;;;;;0.00;0.00;;;;;;;5.07;64.77;101621.88;5008815;28;20154;-75
2022/03/06 07:35:29;;;;;;;0.00;0.00;;;;;;;5.10;64.67;101617.91;5000025;28;20038;-75
2022/03/06 07:37:55;;;;;;;0.00;0.00;;;;;;;5.13;64.39;101617.50;5007467;28;20025;-72
2022/03/06 07:40:22;;;;;;;0.00;0.00;;;;;;;5.18;65.08;101625.88;5007798;28;20383;-73
2022/03/06 07:42:49;;;;;;;0.00;0.00;;;;;;;5.20;65.25;101627.34;5004436;28;20038;-71
2022/03/06 07:45:18;;;;;;;0.00;0.00;;;;;;;5.21;64.79;101620.03;5010971;28;20026;-74
2022/03/06 07:47:44;;;;;;;0.00;0.00;;;;;;;5.32;64.62;101624.91;5095357;28;20084;-75
2022/03/06 07:50:12;;;;;;;0.00;0.00;;;;;;;5.37;64.13;101630.56;5009381;28;20050;-75
2022/03/06 07:52:38;;;;;;;0.00;0.00;;;;;;;5.51;65.28;101627.91;5010501;28;20018;-75
2022/03/06 07:55:05;;;;;;;0.00;0.00;;;;;;;5.63;65.53;101628.97;5010097;28;20121;-76
2022/03/06 07:57:33;;;;;;;0.00;0.00;;;;;;;5.75;65.08;101630.09;5011854;28;20030;-74
2022/03/06 08:00:03;;;;;;;0.00;0.00;;;;;;;5.91;64.22;101630.72;5023481;28;20022;-74
2022/03/06 08:02:29;;;;;;;0.00;0.00;;;;;;;6.08;64.38;101637.47;5024242;28;20431;-75
2022/03/06 08:04:54;;;;;;;0.00;0.00;;;;;;;6.17;63.68;101626.44;4994090;28;20030;-74
2022/03/06 08:07:23;;;;;;;0.00;0.00;;;;;;;6.26;64.51;101634.19;5002685;28;20378;-72
2022/03/06 08:09:53;;;;;;;0.00;0.00;;;;;;;6.32;63.60;101624.34;4987103;28;20030;-76
2022/03/06 08:12:27;;;;;;;0.00;0.00;;;;;;;6.46;63.96;101622.47;4994251;28;20026;-74
2022/03/06 08:14:56;;;;;;;0.00;0.00;;;;;;;6.58;62.98;101637.09;4996052;28;20092;-75
2022/03/06 08:17:21;;;;;;;0.00;0.00;;;;;;;6.73;62.91;101634.19;5011331;28;20045;-72
2022/03/06 08:19:52;;;;;;;0.00;0.00;;;;;;;6.81;62.32;101644.81;5001759;28;20065;-75
2022/03/06 08:22:21;;;;;;;0.00;0.00;;;;;;;6.88;62.47;101633.09;5008503;28;20029;-74
2022/03/06 08:24:46;;;;;;;0.00;0.00;;;;;;;7.04;61.86;101637.25;5002623;28;20026;-73
2022/03/06 08:27:14;;;;;;;0.00;0.00;;;;;;;7.14;61.82;101646.66;4984745;28;20041;-76
2022/03/06 08:29:41;;;;;;;0.00;0.00;;;;;;;7.18;61.38;101643.50;5009122;28;20026;-73
2022/03/06 08:32:07;;;;;;;0.00;0.00;;;;;;;7.31;61.00;101651.63;4991381;28;20126;-73
2022/03/06 08:34:33;;;;;;;0.00;0.00;;;;;;;7.41;60.63;101635.66;5009829;28;20026;-73
2022/03/06 08:37:02;;;;;;;0.00;0.00;;;;;;;7.61;61.06;101653.81;5008959;28;20432;-72
2022/03/06 08:39:27;;;;;;;0.00;0.00;;;;;;;7.77;60.09;101649.75;5010228;28;20046;-71
2022/03/06 08:42:26;;;;;;;;;;;;;;;;;;;;;
2022/03/06 08:45:16;;;;;;;0.00;0.00;;;;;;;8.05;59.81;101654.84;5012093;28;20117;-76
2022/03/06 08:47:45;;;;;;;0.00;0.00;;;;;;;8.04;59.43;101645.00;5020589;28;21199;-77
2022/03/06 08:50:17;;;;;;;0.00;0.00;;;;;;;8.14;58.94;101649.97;5034459;28;20048;-81
2022/03/06 08:52:48;;;;;;;0.00;0.00;;;;;;;8.39;58.90;101647.25;5023576;27;20051;-79
2022/03/06 08:55:31;;;;;;;;;;;;;;;;;;;;;
2022/03/06 08:58:04;;;;;;;0.00;0.00;;;;;;;8.85;58.18;101646.06;5065141;27;20049;-78
2022/03/06 09:00:40;;;;;;;0.00;0.00;;;;;;;8.99;57.51;101643.19;5012199;28;20094;-78
2022/03/06 09:03:09;;;;;;;0.00;0.00;;;;;;;9.21;56.51;101638.97;5044304;28;20046;-78
2022/03/06 09:06:14;;;;;;;;;;;;;;;;;;;;;
2022/03/06 09:09:08;;;;;;;0.00;0.00;;;;;;;9.26;54.90;101647.31;5059472;27;20130;-75
2022/03/06 09:11:34;;;;;;;0.00;0.00;;;;;;;9.25;54.73;101661.19;5041227;27;20059;-74
2022/03/06 09:14:13;;;;;;;0.00;0.00;;;;;;;9.21;55.26;101666.28;5024598;28;20070;-74
2022/03/06 09:22:52;;;;;;;;;;;;;;;;;;;;;
2022/03/06 09:32:05;;;;;;;0.00;0.00;;;;;;;9.47;53.61;101658.00;5073867;28;20107;-76
2022/03/06 09:34:32;;;;;;;0.00;0.00;;;;;;;9.72;54.01;101666.91;5057455;28;20032;-76
2022/03/06 09:37:29;;;;;;;0.00;0.00;;;;;;;9.87;53.46;101652.88;5057463;28;20020;-75
2022/03/06 09:40:00;;;;;;;0.00;0.00;;;;;;;10.00;52.64;101657.28;5074153;28;20024;-74
2022/03/06 09:42:26;;;;;;;0.00;0.00;;;;;;;9.86;52.59;101634.81;5068959;28;20024;-75
2022/03/06 09:44:51;;;;;;;0.00;0.00;;;;;;;9.88;52.30;101638.13;5052158;28;20421;-76
2022/03/06 09:47:20;;;;;;;0.00;0.00;;;;;;;9.92;52.12;101650.25;5057682;28;20051;-75
2022/03/06 09:49:46;;;;;;;0.00;0.00;;;;;;;9.79;50.80;101651.28;5050999;28;20021;-75
2022/03/06 09:52:14;;;;;;;0.00;0.00;;;;;;;9.73;51.02;101645.91;5057184;28;20023;-76
2022/03/06 09:54:49;;;;;;;0.00;0.00;;;;;;;9.81;51.01;101653.78;5056613;28;20379;-76
2022/03/06 09:57:21;;;;;;;0.00;0.00;;;;;;;9.98;50.97;101655.88;5027142;28;20024;-75
2022/03/06 09:59:50;;;;;;;0.00;0.00;;;;;;;10.11;51.22;101655.69;5070664;28;20382;-73
2022/03/06 10:02:18;;;;;;;0.00;0.00;;;;;;;10.27;50.54;101660.47;5055333;28;20040;-76
2022/03/06 10:05:39;;;;;;;;;;;;;;;;;;;;;
2022/03/06 10:13:19;;;;;;;;;;;;;;;;;;;;;
2022/03/06 10:16:54;;;;;;;0.00;0.00;;;;;;;10.46;49.66;101665.91;4899203;29;20727;-78
2022/03/06 10:19:41;;;;;;;0.00;0.00;;;;;;;10.45;49.41;101658.75;4897185;29;20505;-75
2022/03/06 10:23:39;;;;;;;;;;;;;;;;;;;;;
2022/03/06 10:26:54;;;;;;;0.00;0.00;;;;;;;10.59;49.49;101649.28;4818003;29;20039;-75
2022/03/06 11:08:11;;;;;;;0.00;0.00;;;;;;;17.87;39.69;101651.28;4973188;28;20043;-74
2022/03/06 11:10:39;;;;;;;0.00;0.00;;;;;;;17.73;37.06;101653.00;4974672;28;20027;-74
2022/03/06 11:13:05;;;;;;;0.00;0.00;;;;;;;17.28;36.05;101645.44;4957908;28;20432;-74
2022/03/06 11:15:30;;;;;;;0.00;0.00;;;;;;;17.35;37.21;101649.84;4958423;28;20078;-73
2022/03/06 11:18:01;;;;;;;0.00;0.00;;;;;;;19.06;37.82;101647.59;4958968;28;20058;-75
2022/03/06 11:20:31;;;;;;;0.00;0.00;;;;;;;21.69;37.86;101642.25;4977017;28;20158;-73
2022/03/06 11:23:30;;;;;;;0.00;0.00;;;;;;;24.18;34.50;101649.28;4977469;28;20042;-78
2022/03/06 11:26:14;;;;;;;0.00;0.00;;;;;;;26.02;31.45;101652.22;4981567;28;20031;-80
2022/03/06 11:28:57;;;;;;;0.00;0.00;;;;;;;27.14;29.45;101639.34;4982545;28;20687;-81
2022/03/06 11:31:23;;;;;;;0.00;0.00;;;;;;;27.14;27.49;101650.59;4974720;28;20536;-76
2022/03/06 11:33:57;;;;;;;0.00;0.00;;;;;;;27.52;27.34;101650.28;4975672;28;20035;-79
2022/03/06 11:36:25;;;;;;;0.00;0.00;;;;;;;28.01;25.19;101638.13;4971109;28;20088;-74
2022/03/06 11:38:52;;;;;;;0.00;0.00;;;;;;;28.72;23.45;101644.16;4957555;28;20154;-77
2022/03/06 11:41:19;;;;;;;0.00;0.00;;;;;;;29.18;22.56;101642.88;4957101;28;20070;-73
2022/03/06 11:43:49;;;;;;;0.00;0.00;;;;;;;29.09;21.75;101640.25;4956354;28;20027;-75
2022/03/06 11:46:18;;;;;;;0.00;0.00;;;;;;;27.56;20.07;101635.50;4969722;28;20030;-74
2022/03/06 11:48:56;;;;;;;0.00;0.00;;;;;;;25.83;20.91;101637.81;4973230;28;20035;-75
2022/03/06 11:51:24;;;;;;;0.00;0.00;;;;;;;25.19;21.70;101632.09;4972718;28;20034;-77
2022/03/06 11:54:01;;;;;;;0.00;0.00;;;;;;;26.22;22.74;101630.13;4958016;28;20038;-76
2022/03/06 11:56:50;;;;;;;;;;;;;;;;;;;;;
2022/03/06 11:59:19;;;;;;;0.00;0.00;;;;;;;24.54;20.63;101646.09;4975651;28;20035;-76
2022/03/06 12:02:05;;;;;;;0.00;0.00;;;;;;;22.72;22.03;101631.47;4985138;28;20397;-77
2022/03/06 12:05:07;;;;;;;0.00;0.00;;;;;;;21.26;22.28;101623.09;4980985;28;21962;-78
2022/03/06 12:07:44;;;;;;;0.00;0.00;;;;;;;19.59;23.40;101618.94;4984082;28;20043;-77
2022/03/06 12:10:24;;;;;;;0.00;0.00;;;;;;;18.52;24.32;101617.03;4990873;28;20047;-79
2022/03/06 12:12:59;;;;;;;0.00;0.00;;;;;;;17.60;25.53;101611.00;4979651;28;20030;-76
2022/03/06 12:15:28;;;;;;;0.00;0.00;;;;;;;17.83;26.71;101603.16;4973973;28;20034;-74
2022/03/06 12:18:04;;;;;;;0.00;0.00;;;;;;;19.08;27.42;101606.53;4975445;28;20073;-74
2022/03/06 12:20:40;;;;;;;0.00;0.00;;;;;;;19.77;26.25;101618.13;4958588;28;20054;-74
2022/03/06 12:23:09;;;;;;;0.00;0.00;;;;;;;20.11;25.72;101616.28;4973728;28;20030;-73
2022/03/06 12:25:36;;;;;;;0.00;0.00;;;;;;;21.15;25.99;101605.81;4975127;28;20042;-74
2022/03/06 12:28:07;;;;;;;0.00;0.00;;;;;;;23.34;25.86;101601.88;4953620;28;20038;-75
2022/03/06 12:30:35;;;;;;;0.00;0.00;;;;;;;25.06;23.50;101619.16;4971979;28;20034;-74
2022/03/06 12:33:29;;;;;;;0.00;0.00;;;;;;;24.22;21.71;101611.97;4952746;28;20022;-74
2022/03/06 12:36:13;;;;;;;0.00;0.00;;;;;;;22.84;22.17;101595.41;4950793;28;20026;-75
2022/03/06 12:38:39;;;;;;;0.00;0.00;;;;;;;21.42;22.85;101604.13;4972737;28;20480;-74
2022/03/06 12:41:06;;;;;;;0.00;0.00;;;;;;;20.04;23.12;101603.56;4972427;28;20045;-76
2022/03/06 12:43:32;;;;;;;0.00;0.00;;;;;;;18.84;24.28;101599.00;4971443;28;20549;-76
2022/03/06 12:45:59;;;;;;;0.00;0.00;;;;;;;17.86;26.28;101582.34;4974147;28;20511;-74
2022/03/06 12:48:28;;;;;;;0.00;0.00;;;;;;;17.08;27.28;101590.22;4973177;28;20062;-73